sensor_id;sensor_type;location;lat;lon;timestamp;P1;durP1;ratioP1;P2;durP2;ratioP2
8550;SDS011;4313;42.000;21.380;2023-09-18T00:00:29;10.75;;;9.75;;
8550;SDS011;4313;42.000;21.380;2023-09-18T00:02:59;10.68;;;9.57;;
8550;SDS011;4313;42.000;21.380;2023-09-18T00:05:28;13.35;;;10.05;;
8550;SDS011;4313;42.000;21.380;2023-09-18T00:07:55;14.32;;;10.32;;
8550;SDS011;4313;42.000;21.380;2023-09-18T00:10:22;12.73;;;9.95;;
8550;SDS011;4313;42.000;21.380;2023-09-18T00:12:50;13.60;;;10.63;;
8550;SDS011;4313;42.000;21.380;2023-09-18T00:15:17;12.02;;;10.50;;
8550;SDS011;4313;42.000;21.380;2023-09-18T00:17:44;11.00;;;9.90;;
8550;SDS011;4313;42.000;21.380;2023-09-18T00:20:12;11.40;;;9.90;;
8550;SDS011;4313;42.000;21.380;2023-09-18T00:22:42;10.82;;;9.68;;
8550;SDS011;4313;42.000;21.380;2023-09-18T00:25:09;12.55;;;9.63;;
8550;SDS011;4313;42.000;21.380;2023-09-18T00:27:36;12.05;;;10.32;;
8550;SDS011;4313;42.000;21.380;2023-09-18T00:30:04;11.00;;;9.80;;
8550;SDS011;4313;42.000;21.380;2023-09-18T00:32:32;12.75;;;10.52;;
8550;SDS011;4313;42.000;21.380;2023-09-18T00:34:59;11.30;;;10.00;;
8550;SDS011;4313;42.000;21.380;2023-09-18T00:37:29;11.02;;;9.90;;
8550;SDS011;4313;42.000;21.380;2023-09-18T00:39:56;11.70;;;10.43;;
8550;SDS011;4313;42.000;21.380;2023-09-18T00:42:24;11.82;;;10.32;;
8550;SDS011;4313;42.000;21.380;2023-09-18T00:44:51;12.43;;;10.07;;
8550;SDS011;4313;42.000;21.380;2023-09-18T00:47:18;12.48;;;10.73;;
8550;SDS011;4313;42.000;21.380;2023-09-18T00:49:46;11.30;;;10.07;;
8550;SDS011;4313;42.000;21.380;2023-09-18T00:52:14;13.40;;;10.95;;
8550;SDS011;4313;42.000;21.380;2023-09-18T00:54:43;12.68;;;10.70;;
8550;SDS011;4313;42.000;21.380;2023-09-18T00:57:12;13.07;;;11.30;;
8550;SDS011;4313;42.000;21.380;2023-09-18T00:59:39;12.45;;;10.18;;
8550;SDS011;4313;42.000;21.380;2023-09-18T01:02:07;11.30;;;10.20;;
8550;SDS011;4313;42.000;21.380;2023-09-18T01:04:34;15.00;;;10.43;;
8550;SDS011;4313;42.000;21.380;2023-09-18T01:07:01;12.13;;;10.63;;
8550;SDS011;4313;42.000;21.380;2023-09-18T01:09:29;12.20;;;10.77;;
8550;SDS011;4313;42.000;21.380;2023-09-18T01:12:01;11.57;;;10.38;;
8550;SDS011;4313;42.000;21.380;2023-09-18T01:14:31;11.63;;;10.43;;
8550;SDS011;4313;42.000;21.380;2023-09-18T01:17:03;15.50;;;10.48;;
8550;SDS011;4313;42.000;21.380;2023-09-18T01:19:37;13.07;;;10.85;;
8550;SDS011;4313;42.000;21.380;2023-09-18T01:22:04;12.77;;;10.80;;
8550;SDS011;4313;42.000;21.380;2023-09-18T01:24:34;13.93;;;10.90;;
8550;SDS011;4313;42.000;21.380;2023-09-18T01:27:02;11.32;;;10.10;;
8550;SDS011;4313;42.000;21.380;2023-09-18T01:29:30;11.65;;;10.45;;
8550;SDS011;4313;42.000;21.380;2023-09-18T01:31:57;12.07;;;10.60;;
8550;SDS011;4313;42.000;21.380;2023-09-18T01:34:25;11.57;;;10.38;;
8550;SDS011;4313;42.000;21.380;2023-09-18T01:36:53;12.18;;;10.95;;
8550;SDS011;4313;42.000;21.380;2023-09-18T01:39:22;11.52;;;10.43;;
8550;SDS011;4313;42.000;21.380;2023-09-18T01:41:51;13.75;;;10.80;;
8550;SDS011;4313;42.000;21.380;2023-09-18T01:44:18;16.27;;;10.73;;
8550;SDS011;4313;42.000;21.380;2023-09-18T01:46:45;12.02;;;10.80;;
8550;SDS011;4313;42.000;21.380;2023-09-18T01:49:14;13.15;;;10.60;;
8550;SDS011;4313;42.000;21.380;2023-09-18T01:51:41;13.65;;;11.63;;
8550;SDS011;4313;42.000;21.380;2023-09-18T01:54:08;12.68;;;11.45;;
8550;SDS011;4313;42.000;21.380;2023-09-18T01:56:35;14.40;;;11.57;;
8550;SDS011;4313;42.000;21.380;2023-09-18T01:59:03;12.70;;;11.40;;
8550;SDS011;4313;42.000;21.380;2023-09-18T02:01:31;13.82;;;11.15;;
8550;SDS011;4313;42.000;21.380;2023-09-18T02:03:58;13.32;;;11.80;;
8550;SDS011;4313;42.000;21.380;2023-09-18T02:06:25;12.93;;;11.43;;
8550;SDS011;4313;42.000;21.380;2023-09-18T02:08:53;12.25;;;10.98;;
8550;SDS011;4313;42.000;21.380;2023-09-18T02:11:20;13.18;;;11.75;;
8550;SDS011;4313;42.000;21.380;2023-09-18T02:13:47;12.60;;;11.30;;
8550;SDS011;4313;42.000;21.380;2023-09-18T02:16:17;14.80;;;10.68;;
8550;SDS011;4313;42.000;21.380;2023-09-18T02:18:44;14.98;;;11.95;;
8550;SDS011;4313;42.000;21.380;2023-09-18T02:21:18;13.05;;;11.63;;
8550;SDS011;4313;42.000;21.380;2023-09-18T02:23:48;13.60;;;12.15;;
8550;SDS011;4313;42.000;21.380;2023-09-18T02:26:15;13.77;;;11.95;;
8550;SDS011;4313;42.000;21.380;2023-09-18T02:28:43;12.68;;;11.48;;
8550;SDS011;4313;42.000;21.380;2023-09-18T02:31:10;14.38;;;11.68;;
8550;SDS011;4313;42.000;21.380;2023-09-18T02:33:39;13.32;;;11.32;;
8550;SDS011;4313;42.000;21.380;2023-09-18T02:36:07;12.80;;;11.52;;
8550;SDS011;4313;42.000;21.380;2023-09-18T02:38:34;12.52;;;11.20;;
8550;SDS011;4313;42.000;21.380;2023-09-18T02:41:01;12.95;;;11.65;;
8550;SDS011;4313;42.000;21.380;2023-09-18T02:43:28;12.50;;;11.10;;
8550;SDS011;4313;42.000;21.380;2023-09-18T02:45:55;15.30;;;11.15;;
8550;SDS011;4313;42.000;21.380;2023-09-18T02:48:22;12.75;;;11.45;;
8550;SDS011;4313;42.000;21.380;2023-09-18T02:50:51;12.35;;;11.05;;
8550;SDS011;4313;42.000;21.380;2023-09-18T02:53:19;13.57;;;12.18;;
8550;SDS011;4313;42.000;21.380;2023-09-18T02:56:05;14.05;;;11.40;;
8550;SDS011;4313;42.000;21.380;2023-09-18T02:58:33;13.70;;;11.65;;
8550;SDS011;4313;42.000;21.380;2023-09-18T03:01:01;13.02;;;11.82;;
8550;SDS011;4313;42.000;21.380;2023-09-18T03:03:31;14.18;;;12.07;;
8550;SDS011;4313;42.000;21.380;2023-09-18T03:06:03;14.30;;;12.25;;
8550;SDS011;4313;42.000;21.380;2023-09-18T03:08:32;13.15;;;11.68;;
8550;SDS011;4313;42.000;21.380;2023-09-18T03:11:00;15.32;;;12.10;;
8550;SDS011;4313;42.000;21.380;2023-09-18T03:13:28;13.90;;;12.48;;
8550;SDS011;4313;42.000;21.380;2023-09-18T03:15:56;14.25;;;12.68;;
8550;SDS011;4313;42.000;21.380;2023-09-18T03:18:25;15.85;;;12.45;;
8550;SDS011;4313;42.000;21.380;2023-09-18T03:20:52;15.93;;;13.50;;
8550;SDS011;4313;42.000;21.380;2023-09-18T03:23:21;15.30;;;13.70;;
8550;SDS011;4313;42.000;21.380;2023-09-18T03:25:49;14.38;;;12.73;;
8550;SDS011;4313;42.000;21.380;2023-09-18T03:28:16;13.52;;;11.88;;
8550;SDS011;4313;42.000;21.380;2023-09-18T03:30:43;15.05;;;13.10;;
8550;SDS011;4313;42.000;21.380;2023-09-18T03:33:10;14.88;;;12.73;;
8550;SDS011;4313;42.000;21.380;2023-09-18T03:35:44;14.55;;;12.95;;
8550;SDS011;4313;42.000;21.380;2023-09-18T03:38:32;13.88;;;12.48;;
8550;SDS011;4313;42.000;21.380;2023-09-18T03:41:02;13.73;;;12.25;;
8550;SDS011;4313;42.000;21.380;2023-09-18T03:43:29;13.73;;;12.32;;
8550;SDS011;4313;42.000;21.380;2023-09-18T03:46:02;13.90;;;12.43;;
8550;SDS011;4313;42.000;21.380;2023-09-18T03:48:32;14.25;;;12.75;;
8550;SDS011;4313;42.000;21.380;2023-09-18T03:51:03;13.70;;;12.25;;
8550;SDS011;4313;42.000;21.380;2023-09-18T03:53:32;14.32;;;12.93;;
8550;SDS011;4313;42.000;21.380;2023-09-18T03:56:00;14.15;;;12.77;;
8550;SDS011;4313;42.000;21.380;2023-09-18T03:58:27;13.27;;;11.80;;
8550;SDS011;4313;42.000;21.380;2023-09-18T04:00:55;14.40;;;12.90;;
8550;SDS011;4313;42.000;21.380;2023-09-18T04:03:22;14.27;;;12.48;;
8550;SDS011;4313;42.000;21.380;2023-09-18T04:05:49;14.48;;;12.57;;
8550;SDS011;4313;42.000;21.380;2023-09-18T04:08:16;13.98;;;12.57;;
8550;SDS011;4313;42.000;21.380;2023-09-18T04:10:45;13.57;;;12.27;;
8550;SDS011;4313;42.000;21.380;2023-09-18T04:13:12;15.23;;;12.95;;
8550;SDS011;4313;42.000;21.380;2023-09-18T04:15:57;13.50;;;12.13;;
8550;SDS011;4313;42.000;21.380;2023-09-18T04:18:26;14.20;;;12.80;;
8550;SDS011;4313;42.000;21.380;2023-09-18T04:20:53;14.48;;;12.98;;
8550;SDS011;4313;42.000;21.380;2023-09-18T04:23:21;13.85;;;12.40;;
8550;SDS011;4313;42.000;21.380;2023-09-18T04:25:53;16.08;;;13.45;;
8550;SDS011;4313;42.000;21.380;2023-09-18T04:28:21;14.57;;;13.18;;
8550;SDS011;4313;42.000;21.380;2023-09-18T04:30:49;14.52;;;12.95;;
8550;SDS011;4313;42.000;21.380;2023-09-18T04:33:17;15.13;;;12.50;;
8550;SDS011;4313;42.000;21.380;2023-09-18T04:35:44;14.88;;;12.95;;
8550;SDS011;4313;42.000;21.380;2023-09-18T04:38:12;15.50;;;12.55;;
8550;SDS011;4313;42.000;21.380;2023-09-18T04:40:40;14.27;;;12.80;;
8550;SDS011;4313;42.000;21.380;2023-09-18T04:43:09;14.25;;;12.68;;
8550;SDS011;4313;42.000;21.380;2023-09-18T04:45:36;14.85;;;13.30;;
8550;SDS011;4313;42.000;21.380;2023-09-18T04:48:05;14.02;;;12.63;;
8550;SDS011;4313;42.000;21.380;2023-09-18T04:50:33;14.48;;;12.38;;
8550;SDS011;4313;42.000;21.380;2023-09-18T04:53:00;13.45;;;12.15;;
8550;SDS011;4313;42.000;21.380;2023-09-18T04:55:29;17.30;;;13.05;;
8550;SDS011;4313;42.000;21.380;2023-09-18T04:57:56;15.23;;;12.63;;
8550;SDS011;4313;42.000;21.380;2023-09-18T05:00:27;14.15;;;11.63;;
8550;SDS011;4313;42.000;21.380;2023-09-18T05:02:54;15.68;;;12.65;;
8550;SDS011;4313;42.000;21.380;2023-09-18T05:05:23;13.75;;;12.35;;
8550;SDS011;4313;42.000;21.380;2023-09-18T05:07:51;15.40;;;12.25;;
8550;SDS011;4313;42.000;21.380;2023-09-18T05:10:18;13.75;;;12.20;;
8550;SDS011;4313;42.000;21.380;2023-09-18T05:12:45;15.00;;;12.75;;
8550;SDS011;4313;42.000;21.380;2023-09-18T05:15:13;13.02;;;11.73;;
8550;SDS011;4313;42.000;21.380;2023-09-18T05:17:42;13.77;;;12.38;;
8550;SDS011;4313;42.000;21.380;2023-09-18T05:20:12;14.77;;;12.18;;
8550;SDS011;4313;42.000;21.380;2023-09-18T05:22:41;12.68;;;11.50;;
8550;SDS011;4313;42.000;21.380;2023-09-18T05:25:08;12.43;;;11.23;;
8550;SDS011;4313;42.000;21.380;2023-09-18T05:27:36;12.75;;;11.18;;
8550;SDS011;4313;42.000;21.380;2023-09-18T05:30:28;13.25;;;11.38;;
8550;SDS011;4313;42.000;21.380;2023-09-18T05:32:57;13.98;;;11.27;;
8550;SDS011;4313;42.000;21.380;2023-09-18T05:35:30;13.05;;;11.43;;
8550;SDS011;4313;42.000;21.380;2023-09-18T05:37:57;12.88;;;10.52;;
8550;SDS011;4313;42.000;21.380;2023-09-18T05:40:25;12.13;;;10.90;;
8550;SDS011;4313;42.000;21.380;2023-09-18T05:42:53;12.35;;;11.15;;
8550;SDS011;4313;42.000;21.380;2023-09-18T05:45:20;12.00;;;10.67;;
8550;SDS011;4313;42.000;21.380;2023-09-18T05:47:48;12.68;;;11.05;;
8550;SDS011;4313;42.000;21.380;2023-09-18T05:50:16;12.18;;;10.85;;
8550;SDS011;4313;42.000;21.380;2023-09-18T05:52:44;13.20;;;11.05;;
8550;SDS011;4313;42.000;21.380;2023-09-18T05:55:13;12.35;;;10.82;;
8550;SDS011;4313;42.000;21.380;2023-09-18T05:57:40;12.45;;;10.82;;
8550;SDS011;4313;42.000;21.380;2023-09-18T06:00:07;15.18;;;11.35;;
8550;SDS011;4313;42.000;21.380;2023-09-18T06:02:38;13.63;;;11.23;;
8550;SDS011;4313;42.000;21.380;2023-09-18T06:05:05;13.15;;;10.55;;
8550;SDS011;4313;42.000;21.380;2023-09-18T06:07:37;13.65;;;11.18;;
8550;SDS011;4313;42.000;21.380;2023-09-18T06:10:05;12.13;;;10.82;;
8550;SDS011;4313;42.000;21.380;2023-09-18T06:12:32;11.77;;;10.57;;
8550;SDS011;4313;42.000;21.380;2023-09-18T06:14:59;14.85;;;11.50;;
8550;SDS011;4313;42.000;21.380;2023-09-18T06:17:26;12.38;;;10.27;;
8550;SDS011;4313;42.000;21.380;2023-09-18T06:19:53;16.05;;;10.45;;
8550;SDS011;4313;42.000;21.380;2023-09-18T06:22:20;11.25;;;9.75;;
8550;SDS011;4313;42.000;21.380;2023-09-18T06:24:49;12.52;;;9.05;;
8550;SDS011;4313;42.000;21.380;2023-09-18T06:27:16;11.00;;;9.90;;
8550;SDS011;4313;42.000;21.380;2023-09-18T06:29:44;14.25;;;9.50;;
8550;SDS011;4313;42.000;21.380;2023-09-18T06:32:11;13.82;;;10.80;;
8550;SDS011;4313;42.000;21.380;2023-09-18T06:34:38;11.25;;;9.70;;
8550;SDS011;4313;42.000;21.380;2023-09-18T06:37:08;11.43;;;9.60;;
8550;SDS011;4313;42.000;21.380;2023-09-18T06:39:37;13.05;;;9.27;;
8550;SDS011;4313;42.000;21.380;2023-09-18T06:42:06;10.93;;;9.13;;
8550;SDS011;4313;42.000;21.380;2023-09-18T06:44:52;11.30;;;9.07;;
8550;SDS011;4313;42.000;21.380;2023-09-18T06:47:20;11.32;;;9.15;;
8550;SDS011;4313;42.000;21.380;2023-09-18T06:49:49;12.05;;;10.13;;
8550;SDS011;4313;42.000;21.380;2023-09-18T06:52:16;14.13;;;11.55;;
8550;SDS011;4313;42.000;21.380;2023-09-18T06:54:43;15.18;;;11.82;;
8550;SDS011;4313;42.000;21.380;2023-09-18T06:57:12;19.98;;;12.70;;
8550;SDS011;4313;42.000;21.380;2023-09-18T06:59:39;16.42;;;12.60;;
8550;SDS011;4313;42.000;21.380;2023-09-18T07:02:06;16.38;;;12.70;;
8550;SDS011;4313;42.000;21.380;2023-09-18T07:04:33;15.52;;;11.43;;
8550;SDS011;4313;42.000;21.380;2023-09-18T07:07:00;15.25;;;11.35;;
8550;SDS011;4313;42.000;21.380;2023-09-18T07:09:27;17.05;;;11.45;;
8550;SDS011;4313;42.000;21.380;2023-09-18T07:11:56;17.08;;;11.73;;
8550;SDS011;4313;42.000;21.380;2023-09-18T07:14:25;16.70;;;11.60;;
8550;SDS011;4313;42.000;21.380;2023-09-18T07:16:53;17.67;;;12.15;;
8550;SDS011;4313;42.000;21.380;2023-09-18T07:19:20;18.83;;;12.02;;
8550;SDS011;4313;42.000;21.380;2023-09-18T07:21:47;17.33;;;11.30;;
8550;SDS011;4313;42.000;21.380;2023-09-18T07:24:14;17.27;;;11.93;;
8550;SDS011;4313;42.000;21.380;2023-09-18T07:26:45;14.30;;;12.65;;
8550;SDS011;4313;42.000;21.380;2023-09-18T07:29:13;16.60;;;13.27;;
8550;SDS011;4313;42.000;21.380;2023-09-18T07:31:43;15.98;;;12.70;;
8550;SDS011;4313;42.000;21.380;2023-09-18T07:34:10;13.52;;;11.80;;
8550;SDS011;4313;42.000;21.380;2023-09-18T07:36:37;13.50;;;11.55;;
8550;SDS011;4313;42.000;21.380;2023-09-18T07:39:04;14.15;;;12.50;;
8550;SDS011;4313;42.000;21.380;2023-09-18T07:41:32;15.30;;;13.35;;
8550;SDS011;4313;42.000;21.380;2023-09-18T07:43:59;17.92;;;12.05;;
8550;SDS011;4313;42.000;21.380;2023-09-18T07:46:26;15.30;;;13.30;;
8550;SDS011;4313;42.000;21.380;2023-09-18T07:48:55;17.25;;;13.88;;
8550;SDS011;4313;42.000;21.380;2023-09-18T07:51:22;14.02;;;12.35;;
8550;SDS011;4313;42.000;21.380;2023-09-18T07:53:49;13.32;;;11.73;;
8550;SDS011;4313;42.000;21.380;2023-09-18T07:56:16;13.40;;;11.98;;
8550;SDS011;4313;42.000;21.380;2023-09-18T07:58:44;12.68;;;10.70;;
8550;SDS011;4313;42.000;21.380;2023-09-18T08:01:12;14.73;;;11.60;;
8550;SDS011;4313;42.000;21.380;2023-09-18T08:03:41;13.05;;;11.23;;
8550;SDS011;4313;42.000;21.380;2023-09-18T08:06:12;12.73;;;10.77;;
8550;SDS011;4313;42.000;21.380;2023-09-18T08:08:41;10.75;;;9.52;;
8550;SDS011;4313;42.000;21.380;2023-09-18T08:11:08;12.25;;;10.82;;
8550;SDS011;4313;42.000;21.380;2023-09-18T08:13:37;12.25;;;10.35;;
8550;SDS011;4313;42.000;21.380;2023-09-18T08:16:05;13.40;;;10.60;;
8550;SDS011;4313;42.000;21.380;2023-09-18T08:18:32;12.55;;;10.23;;
8550;SDS011;4313;42.000;21.380;2023-09-18T08:21:00;12.50;;;9.95;;
8550;SDS011;4313;42.000;21.380;2023-09-18T08:23:28;12.75;;;11.10;;
8550;SDS011;4313;42.000;21.380;2023-09-18T08:25:56;12.93;;;11.27;;
8550;SDS011;4313;42.000;21.380;2023-09-18T08:28:23;12.88;;;10.20;;
8550;SDS011;4313;42.000;21.380;2023-09-18T08:30:50;12.05;;;9.63;;
8550;SDS011;4313;42.000;21.380;2023-09-18T08:33:20;16.67;;;14.60;;
8550;SDS011;4313;42.000;21.380;2023-09-18T08:35:49;12.73;;;11.05;;
8550;SDS011;4313;42.000;21.380;2023-09-18T08:38:16;16.75;;;14.50;;
8550;SDS011;4313;42.000;21.380;2023-09-18T08:40:44;13.50;;;10.77;;
8550;SDS011;4313;42.000;21.380;2023-09-18T08:43:12;13.25;;;11.32;;
8550;SDS011;4313;42.000;21.380;2023-09-18T08:45:46;12.85;;;11.65;;
8550;SDS011;4313;42.000;21.380;2023-09-18T08:48:19;16.50;;;14.68;;
8550;SDS011;4313;42.000;21.380;2023-09-18T08:50:46;15.07;;;12.32;;
8550;SDS011;4313;42.000;21.380;2023-09-18T08:53:14;15.23;;;11.35;;
8550;SDS011;4313;42.000;21.380;2023-09-18T08:55:41;14.07;;;11.50;;
8550;SDS011;4313;42.000;21.380;2023-09-18T08:58:09;12.18;;;10.88;;
8550;SDS011;4313;42.000;21.380;2023-09-18T09:00:37;13.32;;;11.93;;
8550;SDS011;4313;42.000;21.380;2023-09-18T09:03:04;12.38;;;11.07;;
8550;SDS011;4313;42.000;21.380;2023-09-18T09:05:31;11.95;;;10.45;;
8550;SDS011;4313;42.000;21.380;2023-09-18T09:07:58;12.50;;;11.27;;
8550;SDS011;4313;42.000;21.380;2023-09-18T09:10:26;12.95;;;11.63;;
8550;SDS011;4313;42.000;21.380;2023-09-18T09:12:54;12.48;;;10.82;;
8550;SDS011;4313;42.000;21.380;2023-09-18T09:15:24;12.52;;;11.25;;
8550;SDS011;4313;42.000;21.380;2023-09-18T09:18:03;13.75;;;10.82;;
8550;SDS011;4313;42.000;21.380;2023-09-18T09:20:31;13.75;;;11.10;;
8550;SDS011;4313;42.000;21.380;2023-09-18T09:23:01;12.73;;;11.35;;
8550;SDS011;4313;42.000;21.380;2023-09-18T09:25:28;11.77;;;10.52;;
8550;SDS011;4313;42.000;21.380;2023-09-18T09:27:58;15.20;;;10.57;;
8550;SDS011;4313;42.000;21.380;2023-09-18T09:30:27;12.38;;;11.10;;
8550;SDS011;4313;42.000;21.380;2023-09-18T09:32:55;12.20;;;10.73;;
8550;SDS011;4313;42.000;21.380;2023-09-18T09:35:24;13.27;;;10.98;;
8550;SDS011;4313;42.000;21.380;2023-09-18T09:37:56;12.52;;;11.27;;
8550;SDS011;4313;42.000;21.380;2023-09-18T09:40:24;23.60;;;21.33;;
8550;SDS011;4313;42.000;21.380;2023-09-18T09:42:52;11.75;;;10.63;;
8550;SDS011;4313;42.000;21.380;2023-09-18T09:45:29;12.95;;;10.57;;
8550;SDS011;4313;42.000;21.380;2023-09-18T09:48:00;13.88;;;10.90;;
8550;SDS011;4313;42.000;21.380;2023-09-18T09:50:29;14.40;;;10.02;;
8550;SDS011;4313;42.000;21.380;2023-09-18T09:52:58;11.77;;;10.60;;
8550;SDS011;4313;42.000;21.380;2023-09-18T09:55:28;42.10;;;38.30;;
8550;SDS011;4313;42.000;21.380;2023-09-18T09:57:57;13.68;;;11.40;;
8550;SDS011;4313;42.000;21.380;2023-09-18T10:00:28;12.32;;;9.85;;
8550;SDS011;4313;42.000;21.380;2023-09-18T10:03:03;14.02;;;12.57;;
8550;SDS011;4313;42.000;21.380;2023-09-18T10:05:32;14.18;;;10.57;;
8550;SDS011;4313;42.000;21.380;2023-09-18T10:08:02;14.98;;;10.57;;
8550;SDS011;4313;42.000;21.380;2023-09-18T10:10:32;11.52;;;10.43;;
8550;SDS011;4313;42.000;21.380;2023-09-18T10:13:07;11.75;;;10.05;;
8550;SDS011;4313;42.000;21.380;2023-09-18T10:15:38;11.63;;;9.52;;
8550;SDS011;4313;42.000;21.380;2023-09-18T10:18:17;11.05;;;9.90;;
8550;SDS011;4313;42.000;21.380;2023-09-18T10:21:09;11.95;;;9.75;;
8550;SDS011;4313;42.000;21.380;2023-09-18T10:23:41;11.88;;;10.55;;
8550;SDS011;4313;42.000;21.380;2023-09-18T10:26:16;13.00;;;9.90;;
8550;SDS011;4313;42.000;21.380;2023-09-18T10:28:49;15.43;;;10.57;;
8550;SDS011;4313;42.000;21.380;2023-09-18T10:31:19;10.48;;;8.98;;
8550;SDS011;4313;42.000;21.380;2023-09-18T10:33:47;10.70;;;9.02;;
8550;SDS011;4313;42.000;21.380;2023-09-18T10:36:15;10.52;;;9.43;;
8550;SDS011;4313;42.000;21.380;2023-09-18T10:38:43;11.00;;;9.88;;
8550;SDS011;4313;42.000;21.380;2023-09-18T10:41:14;14.13;;;9.05;;
8550;SDS011;4313;42.000;21.380;2023-09-18T10:43:44;10.48;;;9.48;;
8550;SDS011;4313;42.000;21.380;2023-09-18T10:46:12;13.75;;;9.05;;
8550;SDS011;4313;42.000;21.380;2023-09-18T10:48:41;13.38;;;9.85;;
8550;SDS011;4313;42.000;21.380;2023-09-18T10:51:09;11.68;;;10.10;;
8550;SDS011;4313;42.000;21.380;2023-09-18T10:53:39;10.55;;;9.48;;
8550;SDS011;4313;42.000;21.380;2023-09-18T10:56:06;11.82;;;9.70;;
8550;SDS011;4313;42.000;21.380;2023-09-18T10:58:33;10.80;;;9.65;;
8550;SDS011;4313;42.000;21.380;2023-09-18T11:01:01;10.90;;;9.48;;
8550;SDS011;4313;42.000;21.380;2023-09-18T11:03:28;10.95;;;9.10;;
8550;SDS011;4313;42.000;21.380;2023-09-18T11:06:04;10.32;;;9.18;;
8550;SDS011;4313;42.000;21.380;2023-09-18T11:08:33;11.00;;;9.35;;
8550;SDS011;4313;42.000;21.380;2023-09-18T11:11:02;10.57;;;9.55;;
8550;SDS011;4313;42.000;21.380;2023-09-18T11:13:38;11.15;;;9.80;;
8550;SDS011;4313;42.000;21.380;2023-09-18T11:16:33;10.75;;;8.93;;
8550;SDS011;4313;42.000;21.380;2023-09-18T11:19:10;12.93;;;9.13;;
8550;SDS011;4313;42.000;21.380;2023-09-18T11:21:40;11.07;;;9.70;;
8550;SDS011;4313;42.000;21.380;2023-09-18T11:24:14;10.25;;;8.32;;
8550;SDS011;4313;42.000;21.380;2023-09-18T11:26:43;9.65;;;8.32;;
8550;SDS011;4313;42.000;21.380;2023-09-18T11:29:13;8.82;;;7.70;;
8550;SDS011;4313;42.000;21.380;2023-09-18T11:31:43;9.45;;;8.45;;
8550;SDS011;4313;42.000;21.380;2023-09-18T11:34:12;11.02;;;8.48;;
8550;SDS011;4313;42.000;21.380;2023-09-18T11:36:41;10.88;;;7.32;;
8550;SDS011;4313;42.000;21.380;2023-09-18T11:39:09;8.95;;;7.25;;
8550;SDS011;4313;42.000;21.380;2023-09-18T11:41:37;11.05;;;7.25;;
8550;SDS011;4313;42.000;21.380;2023-09-18T11:47:06;8.15;;;7.35;;
8550;SDS011;4313;42.000;21.380;2023-09-18T11:49:37;9.88;;;7.45;;
8550;SDS011;4313;42.000;21.380;2023-09-18T11:52:07;12.05;;;8.00;;
8550;SDS011;4313;42.000;21.380;2023-09-18T11:54:34;8.23;;;7.35;;
8550;SDS011;4313;42.000;21.380;2023-09-18T11:57:03;8.27;;;7.47;;
8550;SDS011;4313;42.000;21.380;2023-09-18T11:59:36;9.48;;;7.47;;
8550;SDS011;4313;42.000;21.380;2023-09-18T12:02:04;10.50;;;7.13;;
8550;SDS011;4313;42.000;21.380;2023-09-18T12:04:33;7.25;;;5.88;;
8550;SDS011;4313;42.000;21.380;2023-09-18T12:07:01;8.07;;;6.03;;
8550;SDS011;4313;42.000;21.380;2023-09-18T12:09:31;8.25;;;6.00;;
8550;SDS011;4313;42.000;21.380;2023-09-18T12:11:59;7.22;;;6.53;;
8550;SDS011;4313;42.000;21.380;2023-09-18T12:14:30;18.30;;;14.25;;
8550;SDS011;4313;42.000;21.380;2023-09-18T12:16:58;13.20;;;10.93;;
8550;SDS011;4313;42.000;21.380;2023-09-18T12:19:26;9.20;;;6.63;;
8550;SDS011;4313;42.000;21.380;2023-09-18T12:21:54;13.40;;;12.05;;
8550;SDS011;4313;42.000;21.380;2023-09-18T12:24:21;6.93;;;6.22;;
8550;SDS011;4313;42.000;21.380;2023-09-18T12:26:50;10.00;;;6.05;;
8550;SDS011;4313;42.000;21.380;2023-09-18T12:29:18;23.38;;;21.13;;
8550;SDS011;4313;42.000;21.380;2023-09-18T12:31:45;8.65;;;6.38;;
8550;SDS011;4313;42.000;21.380;2023-09-18T12:34:16;6.50;;;5.78;;
8550;SDS011;4313;42.000;21.380;2023-09-18T12:36:43;6.72;;;5.70;;
8550;SDS011;4313;42.000;21.380;2023-09-18T12:39:12;6.50;;;5.47;;
8550;SDS011;4313;42.000;21.380;2023-09-18T12:41:41;5.80;;;5.18;;
8550;SDS011;4313;42.000;21.380;2023-09-18T12:44:11;7.40;;;5.68;;
8550;SDS011;4313;42.000;21.380;2023-09-18T12:46:39;7.55;;;5.20;;
8550;SDS011;4313;42.000;21.380;2023-09-18T12:49:20;5.30;;;4.82;;
8550;SDS011;4313;42.000;21.380;2023-09-18T12:51:55;6.03;;;5.35;;
8550;SDS011;4313;42.000;21.380;2023-09-18T12:54:36;8.60;;;5.70;;
8550;SDS011;4313;42.000;21.380;2023-09-18T12:57:06;4.97;;;4.53;;
8550;SDS011;4313;42.000;21.380;2023-09-18T12:59:35;5.88;;;5.28;;
8550;SDS011;4313;42.000;21.380;2023-09-18T13:02:03;5.20;;;4.70;;
8550;SDS011;4313;42.000;21.380;2023-09-18T13:04:31;6.43;;;5.80;;
8550;SDS011;4313;42.000;21.380;2023-09-18T13:07:09;4.50;;;4.10;;
8550;SDS011;4313;42.000;21.380;2023-09-18T13:09:38;4.60;;;3.67;;
8550;SDS011;4313;42.000;21.380;2023-09-18T13:12:05;4.70;;;4.20;;
8550;SDS011;4313;42.000;21.380;2023-09-18T13:17:25;6.22;;;4.85;;
8550;SDS011;4313;42.000;21.380;2023-09-18T13:19:53;6.05;;;5.05;;
8550;SDS011;4313;42.000;21.380;2023-09-18T13:22:24;5.03;;;4.53;;
8550;SDS011;4313;42.000;21.380;2023-09-18T13:24:55;5.20;;;4.70;;
8550;SDS011;4313;42.000;21.380;2023-09-18T13:27:22;6.63;;;5.05;;
8550;SDS011;4313;42.000;21.380;2023-09-18T13:29:49;5.13;;;3.90;;
8550;SDS011;4313;42.000;21.380;2023-09-18T13:32:20;4.93;;;3.85;;
8550;SDS011;4313;42.000;21.380;2023-09-18T13:34:47;6.00;;;4.30;;
8550;SDS011;4313;42.000;21.380;2023-09-18T13:37:14;7.13;;;4.05;;
8550;SDS011;4313;42.000;21.380;2023-09-18T13:39:42;5.47;;;4.95;;
8550;SDS011;4313;42.000;21.380;2023-09-18T13:42:10;6.13;;;4.80;;
8550;SDS011;4313;42.000;21.380;2023-09-18T13:44:37;5.50;;;4.78;;
8550;SDS011;4313;42.000;21.380;2023-09-18T13:47:04;5.15;;;4.65;;
8550;SDS011;4313;42.000;21.380;2023-09-18T13:49:33;5.97;;;4.75;;
8550;SDS011;4313;42.000;21.380;2023-09-18T13:52:00;5.00;;;4.50;;
8550;SDS011;4313;42.000;21.380;2023-09-18T13:54:29;5.82;;;4.88;;
8550;SDS011;4313;42.000;21.380;2023-09-18T13:56:56;5.63;;;4.47;;
8550;SDS011;4313;42.000;21.380;2023-09-18T13:59:24;5.22;;;4.70;;
8550;SDS011;4313;42.000;21.380;2023-09-18T14:01:53;7.80;;;4.90;;
8550;SDS011;4313;42.000;21.380;2023-09-18T14:04:22;7.97;;;5.65;;
8550;SDS011;4313;42.000;21.380;2023-09-18T14:06:50;7.28;;;5.18;;
8550;SDS011;4313;42.000;21.380;2023-09-18T14:09:17;7.55;;;6.85;;
8550;SDS011;4313;42.000;21.380;2023-09-18T14:11:45;7.03;;;5.63;;
8550;SDS011;4313;42.000;21.380;2023-09-18T14:14:12;5.78;;;4.97;;
8550;SDS011;4313;42.000;21.380;2023-09-18T14:16:50;5.90;;;5.35;;
8550;SDS011;4313;42.000;21.380;2023-09-18T14:19:18;5.47;;;4.88;;
8550;SDS011;4313;42.000;21.380;2023-09-18T14:21:46;6.25;;;5.65;;
8550;SDS011;4313;42.000;21.380;2023-09-18T14:24:16;7.32;;;6.18;;
8550;SDS011;4313;42.000;21.380;2023-09-18T14:26:47;8.50;;;7.28;;
8550;SDS011;4313;42.000;21.380;2023-09-18T14:29:37;6.13;;;5.30;;
8550;SDS011;4313;42.000;21.380;2023-09-18T14:32:05;5.25;;;4.70;;
8550;SDS011;4313;42.000;21.380;2023-09-18T14:34:33;5.82;;;5.10;;
8550;SDS011;4313;42.000;21.380;2023-09-18T14:37:03;6.70;;;5.38;;
8550;SDS011;4313;42.000;21.380;2023-09-18T14:39:32;8.52;;;5.65;;
8550;SDS011;4313;42.000;21.380;2023-09-18T14:41:59;7.15;;;5.00;;
8550;SDS011;4313;42.000;21.380;2023-09-18T14:44:26;6.38;;;4.78;;
8550;SDS011;4313;42.000;21.380;2023-09-18T14:46:54;7.60;;;5.05;;
8550;SDS011;4313;42.000;21.380;2023-09-18T14:49:21;9.13;;;5.68;;
8550;SDS011;4313;42.000;21.380;2023-09-18T14:51:48;6.25;;;5.20;;
8550;SDS011;4313;42.000;21.380;2023-09-18T14:54:18;7.18;;;6.47;;
8550;SDS011;4313;42.000;21.380;2023-09-18T14:56:46;9.90;;;6.38;;